< < Back
Terminal Aerodrome Forecast


Current Version              Previous Versions:   1  2  3  4  5  6  7  8  9  

Terminal Aerodrome Forecast

557
FTUS42 KFFC 071127
TAFFTY
TAF
KFTY 071127Z 0712/0812 26002KT P6SM FEW200
     FM071600 27006KT P6SM FEW050
     FM080200 26005KT P6SM FEW150
     FM080900 28002KT P6SM SKC=

Latest METAR

096
SAUS70 KWBC 071500 RRI
MTRFTY
METAR KFTY 071453Z 32007KT 10SM SCT024 BKN031 28/22 A3018 RMK AO2 SLP208
T02830222 50002


USA.gov is the U.S. government's official web portal to all federal, state and local government web resources and services.